sensor_id;sensor_type;location;lat;lon;timestamp;P1;durP1;ratioP1;P2;durP2;ratioP2
56806;SDS011;42687;42.524;12.052;2023-05-10T00:00:52;16.15;;;12.40;;
56806;SDS011;42687;42.524;12.052;2023-05-10T00:03:18;12.48;;;9.98;;
56806;SDS011;42687;42.524;12.052;2023-05-10T00:05:43;13.35;;;10.35;;
56806;SDS011;42687;42.524;12.052;2023-05-10T00:08:09;16.40;;;11.63;;
56806;SDS011;42687;42.524;12.052;2023-05-10T00:10:35;20.27;;;13.20;;
56806;SDS011;42687;42.524;12.052;2023-05-10T00:13:02;13.70;;;11.18;;
56806;SDS011;42687;42.524;12.052;2023-05-10T00:15:28;14.63;;;11.52;;
56806;SDS011;42687;42.524;12.052;2023-05-10T00:17:56;12.27;;;9.48;;
56806;SDS011;42687;42.524;12.052;2023-05-10T00:20:22;14.85;;;10.50;;
56806;SDS011;42687;42.524;12.052;2023-05-10T00:22:47;11.80;;;9.18;;
56806;SDS011;42687;42.524;12.052;2023-05-10T00:25:13;14.13;;;11.60;;
56806;SDS011;42687;42.524;12.052;2023-05-10T00:27:39;11.85;;;9.60;;
56806;SDS011;42687;42.524;12.052;2023-05-10T00:30:05;12.25;;;8.95;;
56806;SDS011;42687;42.524;12.052;2023-05-10T00:32:31;12.85;;;9.15;;
56806;SDS011;42687;42.524;12.052;2023-05-10T00:34:57;16.33;;;9.48;;
56806;SDS011;42687;42.524;12.052;2023-05-10T00:37:23;13.63;;;8.68;;
56806;SDS011;42687;42.524;12.052;2023-05-10T00:39:49;11.95;;;9.00;;
56806;SDS011;42687;42.524;12.052;2023-05-10T00:42:15;11.07;;;7.95;;
56806;SDS011;42687;42.524;12.052;2023-05-10T00:44:41;14.57;;;9.55;;
56806;SDS011;42687;42.524;12.052;2023-05-10T00:47:07;11.10;;;8.20;;
56806;SDS011;42687;42.524;12.052;2023-05-10T00:49:34;12.18;;;9.15;;
56806;SDS011;42687;42.524;12.052;2023-05-10T00:52:01;12.50;;;8.07;;
56806;SDS011;42687;42.524;12.052;2023-05-10T00:54:28;9.90;;;6.13;;
56806;SDS011;42687;42.524;12.052;2023-05-10T00:56:54;14.85;;;8.68;;
56806;SDS011;42687;42.524;12.052;2023-05-10T00:59:22;12.65;;;9.75;;
56806;SDS011;42687;42.524;12.052;2023-05-10T01:01:48;11.93;;;7.82;;
56806;SDS011;42687;42.524;12.052;2023-05-10T01:04:14;9.52;;;6.90;;
56806;SDS011;42687;42.524;12.052;2023-05-10T01:06:41;9.65;;;6.43;;
56806;SDS011;42687;42.524;12.052;2023-05-10T01:09:07;9.85;;;8.25;;
56806;SDS011;42687;42.524;12.052;2023-05-10T01:11:36;8.88;;;6.63;;
56806;SDS011;42687;42.524;12.052;2023-05-10T01:14:04;12.25;;;8.68;;
56806;SDS011;42687;42.524;12.052;2023-05-10T01:16:36;7.53;;;5.45;;
56806;SDS011;42687;42.524;12.052;2023-05-10T01:19:18;14.50;;;8.68;;
56806;SDS011;42687;42.524;12.052;2023-05-10T01:35:41;15.68;;;9.43;;
56806;SDS011;42687;42.524;12.052;2023-05-10T01:41:40;19.20;;;9.77;;
56806;SDS011;42687;42.524;12.052;2023-05-10T01:46:26;12.35;;;8.98;;
56806;SDS011;42687;42.524;12.052;2023-05-10T01:48:57;14.15;;;10.05;;
56806;SDS011;42687;42.524;12.052;2023-05-10T01:51:27;13.77;;;9.35;;
56806;SDS011;42687;42.524;12.052;2023-05-10T01:54:02;14.52;;;8.48;;
56806;SDS011;42687;42.524;12.052;2023-05-10T01:56:31;13.38;;;9.88;;
56806;SDS011;42687;42.524;12.052;2023-05-10T01:59:00;11.20;;;8.18;;
56806;SDS011;42687;42.524;12.052;2023-05-10T02:01:31;11.70;;;7.95;;
56806;SDS011;42687;42.524;12.052;2023-05-10T02:03:58;11.82;;;8.48;;
56806;SDS011;42687;42.524;12.052;2023-05-10T02:06:25;12.30;;;9.45;;
56806;SDS011;42687;42.524;12.052;2023-05-10T02:08:52;11.73;;;8.10;;
56806;SDS011;42687;42.524;12.052;2023-05-10T02:11:20;11.30;;;9.68;;
56806;SDS011;42687;42.524;12.052;2023-05-10T02:13:50;10.75;;;8.82;;
56806;SDS011;42687;42.524;12.052;2023-05-10T02:16:18;9.95;;;7.82;;
56806;SDS011;42687;42.524;12.052;2023-05-10T02:18:50;13.40;;;9.95;;
56806;SDS011;42687;42.524;12.052;2023-05-10T02:21:18;11.65;;;8.35;;
56806;SDS011;42687;42.524;12.052;2023-05-10T02:23:45;13.02;;;7.88;;
56806;SDS011;42687;42.524;12.052;2023-05-10T02:26:13;15.10;;;13.50;;
56806;SDS011;42687;42.524;12.052;2023-05-10T02:28:40;25.75;;;8.73;;
56806;SDS011;42687;42.524;12.052;2023-05-10T02:31:07;15.00;;;11.52;;
56806;SDS011;42687;42.524;12.052;2023-05-10T02:33:36;16.27;;;10.18;;
56806;SDS011;42687;42.524;12.052;2023-05-10T02:36:05;10.63;;;8.40;;
56806;SDS011;42687;42.524;12.052;2023-05-10T02:38:34;13.50;;;9.95;;
56806;SDS011;42687;42.524;12.052;2023-05-10T02:41:02;13.13;;;8.88;;
56806;SDS011;42687;42.524;12.052;2023-05-10T02:43:30;13.68;;;9.68;;
56806;SDS011;42687;42.524;12.052;2023-05-10T02:45:57;12.25;;;10.07;;
56806;SDS011;42687;42.524;12.052;2023-05-10T02:48:23;13.00;;;10.23;;
56806;SDS011;42687;42.524;12.052;2023-05-10T02:50:50;12.48;;;7.32;;
56806;SDS011;42687;42.524;12.052;2023-05-10T02:53:22;13.20;;;8.10;;
56806;SDS011;42687;42.524;12.052;2023-05-10T02:55:56;12.27;;;8.93;;
56806;SDS011;42687;42.524;12.052;2023-05-10T02:58:24;13.90;;;9.52;;
56806;SDS011;42687;42.524;12.052;2023-05-10T03:00:50;12.77;;;9.18;;
56806;SDS011;42687;42.524;12.052;2023-05-10T03:03:16;11.88;;;8.52;;
56806;SDS011;42687;42.524;12.052;2023-05-10T03:05:41;12.45;;;10.00;;
56806;SDS011;42687;42.524;12.052;2023-05-10T03:08:07;11.02;;;9.20;;
56806;SDS011;42687;42.524;12.052;2023-05-10T03:10:33;12.68;;;8.48;;
56806;SDS011;42687;42.524;12.052;2023-05-10T03:18:21;14.40;;;10.38;;
56806;SDS011;42687;42.524;12.052;2023-05-10T03:20:49;13.13;;;9.55;;
56806;SDS011;42687;42.524;12.052;2023-05-10T03:25:52;12.07;;;8.40;;
56806;SDS011;42687;42.524;12.052;2023-05-10T03:28:18;11.70;;;9.65;;
56806;SDS011;42687;42.524;12.052;2023-05-10T03:30:47;12.77;;;8.07;;
56806;SDS011;42687;42.524;12.052;2023-05-10T03:33:14;36.33;;;11.23;;
56806;SDS011;42687;42.524;12.052;2023-05-10T03:35:40;15.07;;;9.57;;
56806;SDS011;42687;42.524;12.052;2023-05-10T03:38:06;13.98;;;11.23;;
56806;SDS011;42687;42.524;12.052;2023-05-10T03:40:31;12.32;;;8.15;;
56806;SDS011;42687;42.524;12.052;2023-05-10T03:43:00;16.38;;;11.82;;
56806;SDS011;42687;42.524;12.052;2023-05-10T03:45:26;11.15;;;9.52;;
56806;SDS011;42687;42.524;12.052;2023-05-10T03:47:52;16.10;;;11.25;;
56806;SDS011;42687;42.524;12.052;2023-05-10T03:50:19;14.55;;;10.05;;
56806;SDS011;42687;42.524;12.052;2023-05-10T03:52:45;13.68;;;10.45;;
56806;SDS011;42687;42.524;12.052;2023-05-10T03:55:11;16.42;;;11.98;;
56806;SDS011;42687;42.524;12.052;2023-05-10T03:57:37;13.68;;;9.82;;
56806;SDS011;42687;42.524;12.052;2023-05-10T04:00:03;12.25;;;9.27;;
56806;SDS011;42687;42.524;12.052;2023-05-10T04:02:30;12.18;;;8.05;;
56806;SDS011;42687;42.524;12.052;2023-05-10T04:04:56;11.43;;;9.43;;
56806;SDS011;42687;42.524;12.052;2023-05-10T04:07:22;12.43;;;8.07;;
56806;SDS011;42687;42.524;12.052;2023-05-10T04:09:47;14.63;;;10.25;;
56806;SDS011;42687;42.524;12.052;2023-05-10T04:12:13;12.70;;;9.85;;
56806;SDS011;42687;42.524;12.052;2023-05-10T04:14:39;12.30;;;8.15;;
56806;SDS011;42687;42.524;12.052;2023-05-10T04:17:04;11.30;;;8.48;;
56806;SDS011;42687;42.524;12.052;2023-05-10T04:19:30;14.90;;;10.75;;
56806;SDS011;42687;42.524;12.052;2023-05-10T04:21:57;12.65;;;9.73;;
56806;SDS011;42687;42.524;12.052;2023-05-10T04:24:23;14.35;;;10.82;;
56806;SDS011;42687;42.524;12.052;2023-05-10T04:26:49;11.20;;;8.60;;
56806;SDS011;42687;42.524;12.052;2023-05-10T04:29:15;16.70;;;14.65;;
56806;SDS011;42687;42.524;12.052;2023-05-10T04:31:40;14.60;;;7.88;;
56806;SDS011;42687;42.524;12.052;2023-05-10T04:34:06;15.68;;;11.95;;
56806;SDS011;42687;42.524;12.052;2023-05-10T04:36:32;17.60;;;8.45;;
56806;SDS011;42687;42.524;12.052;2023-05-10T04:39:00;30.40;;;13.60;;
56806;SDS011;42687;42.524;12.052;2023-05-10T04:41:28;11.60;;;9.05;;
56806;SDS011;42687;42.524;12.052;2023-05-10T04:43:53;22.05;;;10.98;;
56806;SDS011;42687;42.524;12.052;2023-05-10T04:46:19;11.20;;;9.27;;
56806;SDS011;42687;42.524;12.052;2023-05-10T04:48:45;14.95;;;9.38;;
56806;SDS011;42687;42.524;12.052;2023-05-10T04:51:10;9.85;;;6.70;;
56806;SDS011;42687;42.524;12.052;2023-05-10T04:53:36;12.75;;;10.30;;
56806;SDS011;42687;42.524;12.052;2023-05-10T04:56:02;13.63;;;8.77;;
56806;SDS011;42687;42.524;12.052;2023-05-10T04:58:27;10.32;;;7.93;;
56806;SDS011;42687;42.524;12.052;2023-05-10T05:00:53;8.63;;;6.03;;
56806;SDS011;42687;42.524;12.052;2023-05-10T05:03:19;22.63;;;9.93;;
56806;SDS011;42687;42.524;12.052;2023-05-10T05:05:44;13.27;;;10.60;;
56806;SDS011;42687;42.524;12.052;2023-05-10T05:08:10;10.02;;;7.75;;
56806;SDS011;42687;42.524;12.052;2023-05-10T05:10:36;9.98;;;7.82;;
56806;SDS011;42687;42.524;12.052;2023-05-10T05:13:01;8.90;;;6.70;;
56806;SDS011;42687;42.524;12.052;2023-05-10T05:15:27;10.73;;;6.95;;
56806;SDS011;42687;42.524;12.052;2023-05-10T05:17:53;9.18;;;6.65;;
56806;SDS011;42687;42.524;12.052;2023-05-10T05:20:18;8.57;;;5.72;;
56806;SDS011;42687;42.524;12.052;2023-05-10T05:22:44;11.18;;;9.00;;
56806;SDS011;42687;42.524;12.052;2023-05-10T05:25:10;8.43;;;5.90;;
56806;SDS011;42687;42.524;12.052;2023-05-10T05:27:36;7.28;;;5.10;;
56806;SDS011;42687;42.524;12.052;2023-05-10T05:30:02;11.50;;;6.47;;
56806;SDS011;42687;42.524;12.052;2023-05-10T05:32:29;10.70;;;5.90;;
56806;SDS011;42687;42.524;12.052;2023-05-10T05:34:55;11.68;;;6.95;;
56806;SDS011;42687;42.524;12.052;2023-05-10T05:37:21;9.30;;;6.20;;
56806;SDS011;42687;42.524;12.052;2023-05-10T05:39:48;12.30;;;5.93;;
56806;SDS011;42687;42.524;12.052;2023-05-10T05:42:13;12.32;;;6.78;;
56806;SDS011;42687;42.524;12.052;2023-05-10T05:44:41;9.05;;;6.45;;
56806;SDS011;42687;42.524;12.052;2023-05-10T05:47:07;33.22;;;9.50;;
56806;SDS011;42687;42.524;12.052;2023-05-10T05:49:33;22.23;;;8.48;;
56806;SDS011;42687;42.524;12.052;2023-05-10T05:51:59;14.10;;;7.70;;
56806;SDS011;42687;42.524;12.052;2023-05-10T05:54:26;9.10;;;6.13;;
56806;SDS011;42687;42.524;12.052;2023-05-10T05:56:58;17.83;;;8.30;;
56806;SDS011;42687;42.524;12.052;2023-05-10T05:59:26;11.13;;;7.53;;
56806;SDS011;42687;42.524;12.052;2023-05-10T06:01:52;10.00;;;6.03;;
56806;SDS011;42687;42.524;12.052;2023-05-10T06:04:18;14.57;;;7.13;;
56806;SDS011;42687;42.524;12.052;2023-05-10T06:06:44;10.55;;;7.22;;
56806;SDS011;42687;42.524;12.052;2023-05-10T06:09:10;9.38;;;6.50;;
56806;SDS011;42687;42.524;12.052;2023-05-10T06:11:36;11.20;;;8.88;;
56806;SDS011;42687;42.524;12.052;2023-05-10T06:14:02;11.80;;;7.03;;
56806;SDS011;42687;42.524;12.052;2023-05-10T06:16:33;22.77;;;7.97;;
56806;SDS011;42687;42.524;12.052;2023-05-10T06:18:59;9.93;;;6.53;;
56806;SDS011;42687;42.524;12.052;2023-05-10T06:21:26;19.88;;;7.78;;
56806;SDS011;42687;42.524;12.052;2023-05-10T06:23:51;18.20;;;7.75;;
56806;SDS011;42687;42.524;12.052;2023-05-10T06:26:17;13.13;;;8.63;;
56806;SDS011;42687;42.524;12.052;2023-05-10T06:28:42;13.32;;;7.38;;
56806;SDS011;42687;42.524;12.052;2023-05-10T06:31:08;8.50;;;7.07;;
56806;SDS011;42687;42.524;12.052;2023-05-10T06:33:34;11.60;;;6.20;;
56806;SDS011;42687;42.524;12.052;2023-05-10T06:36:00;11.60;;;7.30;;
56806;SDS011;42687;42.524;12.052;2023-05-10T06:38:26;12.00;;;7.20;;
56806;SDS011;42687;42.524;12.052;2023-05-10T06:40:51;8.90;;;6.25;;
56806;SDS011;42687;42.524;12.052;2023-05-10T06:43:17;8.18;;;6.50;;
56806;SDS011;42687;42.524;12.052;2023-05-10T06:45:43;8.30;;;7.50;;
56806;SDS011;42687;42.524;12.052;2023-05-10T06:48:09;6.50;;;5.15;;
56806;SDS011;42687;42.524;12.052;2023-05-10T06:50:34;8.07;;;6.07;;
56806;SDS011;42687;42.524;12.052;2023-05-10T06:53:00;36.22;;;7.40;;
56806;SDS011;42687;42.524;12.052;2023-05-10T06:55:27;11.77;;;6.07;;
56806;SDS011;42687;42.524;12.052;2023-05-10T06:57:53;8.25;;;3.85;;
56806;SDS011;42687;42.524;12.052;2023-05-10T07:00:19;6.30;;;4.13;;
56806;SDS011;42687;42.524;12.052;2023-05-10T07:02:45;10.00;;;4.85;;
56806;SDS011;42687;42.524;12.052;2023-05-10T07:05:12;11.70;;;6.10;;
56806;SDS011;42687;42.524;12.052;2023-05-10T07:07:39;7.57;;;4.35;;
56806;SDS011;42687;42.524;12.052;2023-05-10T07:10:05;7.07;;;4.07;;
56806;SDS011;42687;42.524;12.052;2023-05-10T07:12:32;13.40;;;4.22;;
56806;SDS011;42687;42.524;12.052;2023-05-10T07:14:58;6.15;;;3.80;;
56806;SDS011;42687;42.524;12.052;2023-05-10T07:17:23;8.68;;;5.07;;
56806;SDS011;42687;42.524;12.052;2023-05-10T07:19:49;10.25;;;4.28;;
56806;SDS011;42687;42.524;12.052;2023-05-10T07:22:15;6.57;;;3.80;;
56806;SDS011;42687;42.524;12.052;2023-05-10T07:24:42;6.65;;;4.50;;
56806;SDS011;42687;42.524;12.052;2023-05-10T07:27:08;7.78;;;4.22;;
56806;SDS011;42687;42.524;12.052;2023-05-10T07:29:34;5.45;;;4.10;;
56806;SDS011;42687;42.524;12.052;2023-05-10T07:32:01;8.25;;;4.47;;
56806;SDS011;42687;42.524;12.052;2023-05-10T07:34:27;18.77;;;6.10;;
56806;SDS011;42687;42.524;12.052;2023-05-10T07:36:55;7.68;;;4.78;;
56806;SDS011;42687;42.524;12.052;2023-05-10T07:39:21;6.22;;;3.95;;
56806;SDS011;42687;42.524;12.052;2023-05-10T07:41:47;5.38;;;3.65;;
56806;SDS011;42687;42.524;12.052;2023-05-10T07:44:13;8.75;;;4.80;;
56806;SDS011;42687;42.524;12.052;2023-05-10T07:46:38;10.38;;;3.38;;
56806;SDS011;42687;42.524;12.052;2023-05-10T07:49:04;6.63;;;3.92;;
56806;SDS011;42687;42.524;12.052;2023-05-10T07:51:30;4.53;;;3.35;;
56806;SDS011;42687;42.524;12.052;2023-05-10T07:53:56;12.85;;;5.05;;
56806;SDS011;42687;42.524;12.052;2023-05-10T07:56:27;10.63;;;4.43;;
56806;SDS011;42687;42.524;12.052;2023-05-10T07:58:55;8.38;;;5.43;;
56806;SDS011;42687;42.524;12.052;2023-05-10T08:01:22;5.75;;;3.75;;
56806;SDS011;42687;42.524;12.052;2023-05-10T08:03:48;4.82;;;2.85;;
56806;SDS011;42687;42.524;12.052;2023-05-10T08:06:16;6.40;;;3.67;;
56806;SDS011;42687;42.524;12.052;2023-05-10T08:08:42;7.32;;;4.30;;
56806;SDS011;42687;42.524;12.052;2023-05-10T08:11:08;6.80;;;4.50;;
56806;SDS011;42687;42.524;12.052;2023-05-10T08:13:34;7.18;;;3.35;;
56806;SDS011;42687;42.524;12.052;2023-05-10T08:16:00;9.93;;;3.42;;
56806;SDS011;42687;42.524;12.052;2023-05-10T08:18:26;5.72;;;3.60;;
56806;SDS011;42687;42.524;12.052;2023-05-10T08:20:51;10.45;;;3.83;;
56806;SDS011;42687;42.524;12.052;2023-05-10T08:23:17;6.32;;;4.38;;
56806;SDS011;42687;42.524;12.052;2023-05-10T08:25:43;7.47;;;3.60;;
56806;SDS011;42687;42.524;12.052;2023-05-10T08:28:08;14.90;;;6.13;;
56806;SDS011;42687;42.524;12.052;2023-05-10T08:30:34;5.03;;;2.92;;
56806;SDS011;42687;42.524;12.052;2023-05-10T08:33:00;5.93;;;3.70;;
56806;SDS011;42687;42.524;12.052;2023-05-10T08:35:25;6.47;;;3.22;;
56806;SDS011;42687;42.524;12.052;2023-05-10T08:37:51;3.67;;;2.35;;
56806;SDS011;42687;42.524;12.052;2023-05-10T08:40:17;5.70;;;2.63;;
56806;SDS011;42687;42.524;12.052;2023-05-10T08:42:51;3.75;;;2.17;;
56806;SDS011;42687;42.524;12.052;2023-05-10T08:45:23;4.80;;;2.25;;
56806;SDS011;42687;42.524;12.052;2023-05-10T08:47:52;6.13;;;2.42;;
56806;SDS011;42687;42.524;12.052;2023-05-10T08:50:19;8.88;;;2.60;;
56806;SDS011;42687;42.524;12.052;2023-05-10T08:52:47;5.25;;;2.88;;
56806;SDS011;42687;42.524;12.052;2023-05-10T08:55:17;5.45;;;2.65;;
56806;SDS011;42687;42.524;12.052;2023-05-10T08:57:44;5.85;;;1.83;;
56806;SDS011;42687;42.524;12.052;2023-05-10T09:00:10;2.38;;;2.03;;
56806;SDS011;42687;42.524;12.052;2023-05-10T09:02:37;2.35;;;1.98;;
56806;SDS011;42687;42.524;12.052;2023-05-10T09:05:03;4.85;;;2.40;;
56806;SDS011;42687;42.524;12.052;2023-05-10T09:07:29;7.55;;;2.03;;
56806;SDS011;42687;42.524;12.052;2023-05-10T09:09:56;4.13;;;2.33;;
56806;SDS011;42687;42.524;12.052;2023-05-10T09:12:23;3.70;;;1.60;;
56806;SDS011;42687;42.524;12.052;2023-05-10T09:14:49;5.28;;;2.53;;
56806;SDS011;42687;42.524;12.052;2023-05-10T09:17:17;3.70;;;2.20;;
56806;SDS011;42687;42.524;12.052;2023-05-10T09:19:44;4.72;;;2.20;;
56806;SDS011;42687;42.524;12.052;2023-05-10T09:22:10;5.13;;;2.35;;
56806;SDS011;42687;42.524;12.052;2023-05-10T09:24:36;5.18;;;4.07;;
56806;SDS011;42687;42.524;12.052;2023-05-10T09:27:07;6.53;;;3.83;;
56806;SDS011;42687;42.524;12.052;2023-05-10T09:29:42;3.85;;;2.20;;
56806;SDS011;42687;42.524;12.052;2023-05-10T09:32:08;5.28;;;2.65;;
56806;SDS011;42687;42.524;12.052;2023-05-10T09:34:34;4.50;;;1.73;;
56806;SDS011;42687;42.524;12.052;2023-05-10T09:37:01;3.75;;;2.38;;
56806;SDS011;42687;42.524;12.052;2023-05-10T09:39:30;3.22;;;2.03;;
56806;SDS011;42687;42.524;12.052;2023-05-10T09:41:59;2.75;;;1.60;;
56806;SDS011;42687;42.524;12.052;2023-05-10T09:44:29;3.88;;;2.58;;
56806;SDS011;42687;42.524;12.052;2023-05-10T09:46:54;2.60;;;1.90;;
56806;SDS011;42687;42.524;12.052;2023-05-10T09:49:21;3.92;;;1.80;;
56806;SDS011;42687;42.524;12.052;2023-05-10T09:51:47;3.33;;;2.60;;
56806;SDS011;42687;42.524;12.052;2023-05-10T09:54:30;3.08;;;1.80;;
56806;SDS011;42687;42.524;12.052;2023-05-10T09:56:56;5.10;;;2.40;;
56806;SDS011;42687;42.524;12.052;2023-05-10T09:59:24;6.13;;;2.92;;
56806;SDS011;42687;42.524;12.052;2023-05-10T10:01:56;4.65;;;3.40;;
56806;SDS011;42687;42.524;12.052;2023-05-10T10:04:23;1.83;;;1.50;;
56806;SDS011;42687;42.524;12.052;2023-05-10T10:06:59;10.60;;;2.95;;
56806;SDS011;42687;42.524;12.052;2023-05-10T10:09:26;4.10;;;2.20;;
56806;SDS011;42687;42.524;12.052;2023-05-10T10:11:52;4.55;;;2.38;;
56806;SDS011;42687;42.524;12.052;2023-05-10T10:14:19;3.47;;;1.75;;
56806;SDS011;42687;42.524;12.052;2023-05-10T10:16:47;4.22;;;2.17;;
56806;SDS011;42687;42.524;12.052;2023-05-10T10:19:14;4.28;;;1.80;;
56806;SDS011;42687;42.524;12.052;2023-05-10T10:21:40;4.43;;;1.40;;
56806;SDS011;42687;42.524;12.052;2023-05-10T10:24:06;4.07;;;1.77;;
56806;SDS011;42687;42.524;12.052;2023-05-10T10:26:33;3.95;;;2.28;;
56806;SDS011;42687;42.524;12.052;2023-05-10T10:34:46;7.75;;;3.53;;
56806;SDS011;42687;42.524;12.052;2023-05-10T10:37:13;2.63;;;1.65;;
56806;SDS011;42687;42.524;12.052;2023-05-10T10:39:39;3.55;;;2.10;;
56806;SDS011;42687;42.524;12.052;2023-05-10T10:42:05;3.50;;;2.28;;
56806;SDS011;42687;42.524;12.052;2023-05-10T10:47:05;11.82;;;2.75;;
56806;SDS011;42687;42.524;12.052;2023-05-10T10:50:01;3.35;;;1.67;;
56806;SDS011;42687;42.524;12.052;2023-05-10T10:52:35;4.43;;;1.90;;
56806;SDS011;42687;42.524;12.052;2023-05-10T10:55:06;5.07;;;2.28;;
56806;SDS011;42687;42.524;12.052;2023-05-10T10:57:49;4.15;;;2.03;;
56806;SDS011;42687;42.524;12.052;2023-05-10T11:06:07;5.30;;;2.30;;
56806;SDS011;42687;42.524;12.052;2023-05-10T11:08:27;2.80;;;1.58;;
56806;SDS011;42687;42.524;12.052;2023-05-10T11:13:29;23.02;;;2.88;;
56806;SDS011;42687;42.524;12.052;2023-05-10T11:15:57;6.03;;;2.67;;
56806;SDS011;42687;42.524;12.052;2023-05-10T11:18:25;7.43;;;3.22;;
56806;SDS011;42687;42.524;12.052;2023-05-10T11:20:58;5.25;;;3.00;;
56806;SDS011;42687;42.524;12.052;2023-05-10T11:23:32;5.00;;;2.83;;
56806;SDS011;42687;42.524;12.052;2023-05-10T11:26:12;5.53;;;2.63;;
56806;SDS011;42687;42.524;12.052;2023-05-10T11:28:47;6.55;;;4.22;;
56806;SDS011;42687;42.524;12.052;2023-05-10T11:31:14;7.63;;;3.35;;
56806;SDS011;42687;42.524;12.052;2023-05-10T11:33:42;6.00;;;2.78;;
56806;SDS011;42687;42.524;12.052;2023-05-10T11:36:16;7.07;;;3.88;;
56806;SDS011;42687;42.524;12.052;2023-05-10T11:38:45;6.65;;;3.40;;
56806;SDS011;42687;42.524;12.052;2023-05-10T11:41:12;6.60;;;2.60;;
56806;SDS011;42687;42.524;12.052;2023-05-10T11:43:39;5.13;;;2.58;;
56806;SDS011;42687;42.524;12.052;2023-05-10T11:46:12;5.28;;;3.40;;
56806;SDS011;42687;42.524;12.052;2023-05-10T11:51:05;3.78;;;3.08;;
56806;SDS011;42687;42.524;12.052;2023-05-10T11:53:32;5.72;;;3.70;;
56806;SDS011;42687;42.524;12.052;2023-05-10T11:56:08;7.45;;;4.57;;
56806;SDS011;42687;42.524;12.052;2023-05-10T11:58:35;15.18;;;8.57;;
56806;SDS011;42687;42.524;12.052;2023-05-10T12:01:02;6.22;;;4.10;;
56806;SDS011;42687;42.524;12.052;2023-05-10T12:03:30;6.80;;;3.97;;
56806;SDS011;42687;42.524;12.052;2023-05-10T12:05:57;4.45;;;2.85;;
56806;SDS011;42687;42.524;12.052;2023-05-10T12:08:27;6.95;;;3.50;;
56806;SDS011;42687;42.524;12.052;2023-05-10T12:11:05;7.50;;;4.40;;
56806;SDS011;42687;42.524;12.052;2023-05-10T12:13:36;11.52;;;7.55;;
56806;SDS011;42687;42.524;12.052;2023-05-10T12:19:01;9.57;;;3.45;;
56806;SDS011;42687;42.524;12.052;2023-05-10T12:21:27;9.05;;;4.18;;
56806;SDS011;42687;42.524;12.052;2023-05-10T12:23:59;11.68;;;4.80;;
56806;SDS011;42687;42.524;12.052;2023-05-10T12:26:27;6.15;;;3.90;;
56806;SDS011;42687;42.524;12.052;2023-05-10T12:28:54;12.90;;;4.95;;
56806;SDS011;42687;42.524;12.052;2023-05-10T12:31:20;5.60;;;2.78;;
56806;SDS011;42687;42.524;12.052;2023-05-10T12:33:46;8.38;;;3.20;;
56806;SDS011;42687;42.524;12.052;2023-05-10T12:36:15;11.25;;;4.47;;
56806;SDS011;42687;42.524;12.052;2023-05-10T12:38:42;8.00;;;4.35;;
56806;SDS011;42687;42.524;12.052;2023-05-10T12:41:16;5.53;;;3.97;;
56806;SDS011;42687;42.524;12.052;2023-05-10T12:43:43;6.93;;;3.10;;
56806;SDS011;42687;42.524;12.052;2023-05-10T12:46:14;5.53;;;3.83;;
56806;SDS011;42687;42.524;12.052;2023-05-10T12:48:41;6.78;;;3.05;;
56806;SDS011;42687;42.524;12.052;2023-05-10T12:51:08;7.57;;;4.68;;
56806;SDS011;42687;42.524;12.052;2023-05-10T12:53:37;6.63;;;2.70;;
56806;SDS011;42687;42.524;12.052;2023-05-10T12:56:03;10.00;;;3.65;;
56806;SDS011;42687;42.524;12.052;2023-05-10T12:58:29;10.45;;;5.25;;
56806;SDS011;42687;42.524;12.052;2023-05-10T13:00:55;6.45;;;3.67;;
56806;SDS011;42687;42.524;12.052;2023-05-10T13:03:21;7.95;;;4.20;;
56806;SDS011;42687;42.524;12.052;2023-05-10T13:05:48;8.43;;;3.83;;
56806;SDS011;42687;42.524;12.052;2023-05-10T13:08:13;5.63;;;2.70;;
56806;SDS011;42687;42.524;12.052;2023-05-10T13:10:39;6.85;;;3.42;;
56806;SDS011;42687;42.524;12.052;2023-05-10T13:13:06;11.15;;;4.35;;
56806;SDS011;42687;42.524;12.052;2023-05-10T13:15:32;6.03;;;3.70;;
56806;SDS011;42687;42.524;12.052;2023-05-10T13:17:58;5.43;;;3.30;;
56806;SDS011;42687;42.524;12.052;2023-05-10T13:20:25;3.42;;;2.47;;
56806;SDS011;42687;42.524;12.052;2023-05-10T13:22:51;5.78;;;3.13;;
56806;SDS011;42687;42.524;12.052;2023-05-10T13:25:17;5.90;;;3.13;;
56806;SDS011;42687;42.524;12.052;2023-05-10T13:27:43;7.07;;;3.88;;
56806;SDS011;42687;42.524;12.052;2023-05-10T13:30:10;7.70;;;5.10;;
56806;SDS011;42687;42.524;12.052;2023-05-10T13:32:39;11.05;;;3.40;;
56806;SDS011;42687;42.524;12.052;2023-05-10T13:35:05;6.80;;;3.10;;
56806;SDS011;42687;42.524;12.052;2023-05-10T13:37:31;10.52;;;2.55;;
56806;SDS011;42687;42.524;12.052;2023-05-10T13:40:00;10.43;;;4.82;;
56806;SDS011;42687;42.524;12.052;2023-05-10T13:42:26;5.10;;;2.80;;
56806;SDS011;42687;42.524;12.052;2023-05-10T13:44:52;6.63;;;2.92;;
56806;SDS011;42687;42.524;12.052;2023-05-10T13:47:18;7.80;;;4.25;;
56806;SDS011;42687;42.524;12.052;2023-05-10T13:49:44;8.35;;;3.17;;
56806;SDS011;42687;42.524;12.052;2023-05-10T13:52:09;6.25;;;2.92;;
56806;SDS011;42687;42.524;12.052;2023-05-10T13:54:38;9.13;;;3.17;;
56806;SDS011;42687;42.524;12.052;2023-05-10T13:57:04;7.28;;;2.70;;
56806;SDS011;42687;42.524;12.052;2023-05-10T13:59:31;7.18;;;4.40;;
56806;SDS011;42687;42.524;12.052;2023-05-10T14:01:58;10.27;;;4.13;;
56806;SDS011;42687;42.524;12.052;2023-05-10T14:04:24;12.50;;;4.97;;
56806;SDS011;42687;42.524;12.052;2023-05-10T14:06:50;11.73;;;3.58;;
56806;SDS011;42687;42.524;12.052;2023-05-10T14:09:16;5.43;;;3.25;;
56806;SDS011;42687;42.524;12.052;2023-05-10T14:11:42;15.15;;;4.60;;
56806;SDS011;42687;42.524;12.052;2023-05-10T14:14:10;4.15;;;2.67;;
56806;SDS011;42687;42.524;12.052;2023-05-10T14:16:35;7.35;;;4.35;;
56806;SDS011;42687;42.524;12.052;2023-05-10T14:19:01;5.72;;;2.90;;
56806;SDS011;42687;42.524;12.052;2023-05-10T14:21:27;9.38;;;3.28;;
56806;SDS011;42687;42.524;12.052;2023-05-10T14:23:56;5.78;;;2.58;;
56806;SDS011;42687;42.524;12.052;2023-05-10T14:26:22;6.32;;;3.28;;
56806;SDS011;42687;42.524;12.052;2023-05-10T14:28:47;6.22;;;2.97;;
56806;SDS011;42687;42.524;12.052;2023-05-10T14:31:13;7.75;;;3.15;;
56806;SDS011;42687;42.524;12.052;2023-05-10T14:33:42;5.57;;;2.25;;
56806;SDS011;42687;42.524;12.052;2023-05-10T14:36:08;8.48;;;3.67;;
56806;SDS011;42687;42.524;12.052;2023-05-10T14:38:34;16.10;;;6.22;;
56806;SDS011;42687;42.524;12.052;2023-05-10T14:40:59;8.30;;;4.95;;
56806;SDS011;42687;42.524;12.052;2023-05-10T14:43:25;7.00;;;4.03;;
56806;SDS011;42687;42.524;12.052;2023-05-10T14:45:53;8.60;;;4.40;;
56806;SDS011;42687;42.524;12.052;2023-05-10T14:48:19;5.72;;;3.63;;
56806;SDS011;42687;42.524;12.052;2023-05-10T14:50:46;8.05;;;3.40;;
56806;SDS011;42687;42.524;12.052;2023-05-10T14:53:12;4.78;;;2.88;;
56806;SDS011;42687;42.524;12.052;2023-05-10T14:55:37;8.98;;;3.47;;
56806;SDS011;42687;42.524;12.052;2023-05-10T14:58:04;4.78;;;2.63;;
56806;SDS011;42687;42.524;12.052;2023-05-10T15:00:30;9.82;;;4.28;;
56806;SDS011;42687;42.524;12.052;2023-05-10T15:02:56;18.70;;;4.65;;
56806;SDS011;42687;42.524;12.052;2023-05-10T15:05:22;8.93;;;5.15;;
56806;SDS011;42687;42.524;12.052;2023-05-10T15:07:48;6.50;;;2.78;;
56806;SDS011;42687;42.524;12.052;2023-05-10T15:10:14;10.20;;;2.97;;
56806;SDS011;42687;42.524;12.052;2023-05-10T15:12:40;11.98;;;3.95;;
56806;SDS011;42687;42.524;12.052;2023-05-10T15:15:06;12.45;;;4.13;;
56806;SDS011;42687;42.524;12.052;2023-05-10T15:17:33;21.05;;;7.65;;